createdAt,value
2018-12-19T00:00:24.499Z,3.48
2018-12-19T00:02:53.920Z,3.51
2018-12-19T00:05:23.183Z,3.64
2018-12-19T00:07:52.663Z,3.80
2018-12-19T00:10:21.989Z,4.14
2018-12-19T00:12:51.333Z,4.07
2018-12-19T00:15:20.739Z,3.98
2018-12-19T00:17:50.136Z,3.70
2018-12-19T00:20:19.746Z,3.80
2018-12-19T00:22:49.052Z,3.81
2018-12-19T00:25:18.421Z,4.03
2018-12-19T00:27:47.794Z,4.14
2018-12-19T00:30:16.992Z,4.26
2018-12-19T00:32:46.232Z,4.01
2018-12-19T00:35:15.728Z,4.03
2018-12-19T00:37:44.944Z,3.82
2018-12-19T00:40:14.281Z,3.89
2018-12-19T00:42:43.564Z,4.03
2018-12-19T00:45:12.810Z,4.05
2018-12-19T00:47:42.318Z,3.96
2018-12-19T00:50:11.510Z,4.08
2018-12-19T00:52:40.641Z,3.95
2018-12-19T00:55:10.132Z,4.00
2018-12-19T00:57:39.569Z,4.24
2018-12-19T01:00:09.458Z,4.28
2018-12-19T01:02:38.667Z,4.63
2018-12-19T01:05:07.948Z,4.82
2018-12-19T01:07:37.362Z,4.52
2018-12-19T01:10:06.768Z,4.43
2018-12-19T01:12:36.040Z,4.33
2018-12-19T01:15:05.724Z,4.29
2018-12-19T01:17:35.153Z,4.21
2018-12-19T01:20:04.701Z,4.24
2018-12-19T01:22:34.061Z,4.37
2018-12-19T01:25:03.307Z,4.28
2018-12-19T01:27:32.886Z,4.30
2018-12-19T01:30:02.542Z,4.54
2018-12-19T01:32:32.104Z,4.54
2018-12-19T01:35:01.594Z,4.68
2018-12-19T01:37:30.780Z,5.15
2018-12-19T01:40:00.219Z,5.30
2018-12-19T01:42:29.495Z,5.21
2018-12-19T01:44:58.936Z,4.72
2018-12-19T01:47:28.196Z,4.84
2018-12-19T01:49:57.544Z,4.46
2018-12-19T01:52:26.961Z,4.40
2018-12-19T01:54:56.126Z,4.21
2018-12-19T01:57:25.415Z,4.43
2018-12-19T01:59:54.885Z,4.57
2018-12-19T02:02:24.329Z,4.46
2018-12-19T02:04:53.628Z,4.88
2018-12-19T02:07:23.480Z,5.00
2018-12-19T02:09:53.666Z,5.02
2018-12-19T02:12:23.043Z,5.05
2018-12-19T02:14:52.291Z,5.18
2018-12-19T02:17:21.542Z,5.16
2018-12-19T02:19:50.886Z,5.30
2018-12-19T02:22:20.419Z,5.29
2018-12-19T02:24:49.507Z,5.18
2018-12-19T02:27:18.699Z,5.20
2018-12-19T02:29:47.928Z,5.02
2018-12-19T02:32:17.048Z,5.15
2018-12-19T02:34:46.336Z,5.20
2018-12-19T02:37:15.681Z,5.04
2018-12-19T02:39:44.830Z,5.10
2018-12-19T02:42:14.074Z,5.17
2018-12-19T02:44:43.364Z,4.98
2018-12-19T02:47:12.807Z,4.94
2018-12-19T02:49:42.187Z,5.23
2018-12-19T02:52:11.615Z,5.19
2018-12-19T02:54:40.968Z,5.20
2018-12-19T02:57:10.484Z,5.23
2018-12-19T02:59:40.070Z,5.14
2018-12-19T03:02:09.460Z,5.06
2018-12-19T03:04:38.634Z,4.66
2018-12-19T03:07:08.381Z,4.52
2018-12-19T03:09:42.878Z,4.51
2018-12-19T03:12:09.133Z,4.56
2018-12-19T03:14:38.363Z,4.22
2018-12-19T03:17:07.617Z,4.43
2018-12-19T03:19:37.057Z,4.51
2018-12-19T03:22:06.355Z,4.31
2018-12-19T03:24:35.824Z,4.18
2018-12-19T03:27:05.196Z,3.93
2018-12-19T03:29:34.421Z,4.06
2018-12-19T03:32:03.560Z,4.10
2018-12-19T03:34:32.722Z,4.15
2018-12-19T03:37:02.058Z,4.18
2018-12-19T03:39:31.426Z,3.97
2018-12-19T03:42:00.752Z,4.06
2018-12-19T03:44:30.025Z,3.96
2018-12-19T03:46:59.516Z,4.04
2018-12-19T03:49:29.139Z,4.40
2018-12-19T03:51:58.632Z,4.18
2018-12-19T03:54:28.167Z,4.00
2018-12-19T03:56:58.202Z,3.84
2018-12-19T03:59:27.381Z,3.80
2018-12-19T04:01:56.633Z,3.95
2018-12-19T04:04:26.098Z,3.96
2018-12-19T04:06:55.377Z,3.92
2018-12-19T04:09:24.502Z,3.97
2018-12-19T04:11:53.753Z,4.01
2018-12-19T04:14:22.905Z,4.05
2018-12-19T04:16:52.404Z,4.11
2018-12-19T04:19:21.949Z,3.95
2018-12-19T04:21:51.293Z,4.02
2018-12-19T04:24:20.600Z,4.07
2018-12-19T04:26:49.825Z,4.10
2018-12-19T04:29:19.315Z,4.10
2018-12-19T04:31:48.592Z,4.11
2018-12-19T04:34:17.713Z,4.17
2018-12-19T04:36:46.911Z,4.28
2018-12-19T04:39:16.228Z,4.13
2018-12-19T04:41:45.448Z,4.23
2018-12-19T04:44:14.860Z,4.39
2018-12-19T04:46:44.141Z,4.48
2018-12-19T04:49:13.391Z,4.25
2018-12-19T04:51:42.600Z,4.31
2018-12-19T04:54:12.033Z,4.04
2018-12-19T04:56:41.253Z,3.99
2018-12-19T04:59:10.381Z,4.09
2018-12-19T05:01:39.663Z,4.14
2018-12-19T05:04:08.959Z,4.21
2018-12-19T05:06:38.106Z,4.28
2018-12-19T05:09:08.871Z,4.17
2018-12-19T05:11:38.462Z,4.15
2018-12-19T05:14:07.669Z,4.02
2018-12-19T05:16:36.997Z,4.13
2018-12-19T05:19:06.497Z,4.19
2018-12-19T05:21:35.795Z,4.04
2018-12-19T05:24:05.148Z,3.98
2018-12-19T05:26:34.534Z,3.93
2018-12-19T05:29:03.801Z,4.00
2018-12-19T05:31:32.927Z,3.95
2018-12-19T05:34:02.014Z,3.97
2018-12-19T05:36:31.327Z,4.03
2018-12-19T05:39:00.557Z,4.12
2018-12-19T05:41:29.775Z,4.02
2018-12-19T05:43:58.932Z,4.01
2018-12-19T05:46:28.143Z,4.07
2018-12-19T05:48:57.650Z,4.19
2018-12-19T05:51:27.008Z,4.01
2018-12-19T05:53:56.297Z,3.94
2018-12-19T05:56:25.620Z,3.88
2018-12-19T05:58:55.045Z,3.82
2018-12-19T06:01:24.462Z,3.84
2018-12-19T06:03:53.712Z,3.83
2018-12-19T06:06:22.852Z,4.00
2018-12-19T06:08:52.231Z,4.11
2018-12-19T06:11:21.335Z,4.07
2018-12-19T06:13:50.647Z,4.23
2018-12-19T06:16:20.045Z,4.59
2018-12-19T06:18:49.320Z,4.81
2018-12-19T06:21:18.556Z,4.94
2018-12-19T06:23:47.806Z,4.62
2018-12-19T06:26:17.079Z,4.35
2018-12-19T06:28:46.234Z,4.15
2018-12-19T06:31:15.435Z,4.24
2018-12-19T06:33:44.871Z,4.07
2018-12-19T06:36:14.635Z,4.16
2018-12-19T06:38:43.926Z,4.00
2018-12-19T06:41:13.251Z,3.97
2018-12-19T06:43:42.308Z,3.93
2018-12-19T06:46:11.580Z,4.16
2018-12-19T06:48:40.796Z,3.94
2018-12-19T06:51:10.241Z,4.00
2018-12-19T06:53:39.533Z,3.95
2018-12-19T06:56:09.091Z,3.89
2018-12-19T06:58:38.546Z,3.97
2018-12-19T07:01:07.859Z,3.99
2018-12-19T07:03:37.056Z,3.98
2018-12-19T07:06:06.470Z,3.93
2018-12-19T07:08:35.732Z,4.01
2018-12-19T07:11:04.968Z,4.12
2018-12-19T07:13:34.207Z,4.37
2018-12-19T07:16:03.539Z,4.41
2018-12-19T07:18:32.766Z,4.35
2018-12-19T07:21:02.537Z,4.31
2018-12-19T07:23:31.892Z,4.11
2018-12-19T07:26:01.331Z,4.07
2018-12-19T07:28:30.772Z,4.03
2018-12-19T07:31:00.108Z,4.26
2018-12-19T07:33:29.274Z,4.19
2018-12-19T07:35:58.712Z,4.37
2018-12-19T07:38:27.992Z,4.54
2018-12-19T07:40:57.395Z,4.29
2018-12-19T07:43:26.731Z,4.16
2018-12-19T07:45:56.081Z,3.98
2018-12-19T07:48:25.663Z,4.02
2018-12-19T07:50:54.932Z,4.06
2018-12-19T07:53:24.179Z,4.11
2018-12-19T07:55:53.742Z,4.25
2018-12-19T07:58:23.164Z,4.36
2018-12-19T08:00:52.436Z,4.43
2018-12-19T08:03:21.775Z,4.39
2018-12-19T08:05:50.993Z,4.30
2018-12-19T08:08:20.219Z,4.19
2018-12-19T08:10:52.335Z,4.26
2018-12-19T08:13:20.860Z,4.54
2018-12-19T08:15:50.208Z,4.36
2018-12-19T08:18:19.415Z,4.26
2018-12-19T08:20:48.546Z,4.31
2018-12-19T08:23:17.856Z,4.41
2018-12-19T08:25:47.361Z,4.24
2018-12-19T08:28:16.711Z,4.48
2018-12-19T08:30:48.612Z,4.43
2018-12-19T08:33:18.171Z,4.39
2018-12-19T08:35:47.892Z,4.39
2018-12-19T08:38:17.227Z,4.37
2018-12-19T08:40:46.671Z,4.57
2018-12-19T08:43:15.924Z,4.32
2018-12-19T08:45:45.595Z,4.27
2018-12-19T08:48:14.872Z,4.39
2018-12-19T08:50:44.053Z,4.28
2018-12-19T08:53:13.455Z,4.10
2018-12-19T08:55:42.889Z,4.07
2018-12-19T08:58:12.366Z,4.10
2018-12-19T09:00:41.897Z,4.08
2018-12-19T09:03:11.372Z,4.14
2018-12-19T09:05:41.594Z,4.10
2018-12-19T09:08:11.072Z,4.04
2018-12-19T09:10:40.569Z,4.03
2018-12-19T09:13:09.795Z,4.29
2018-12-19T09:15:43.993Z,4.34
2018-12-19T09:18:14.323Z,4.41
2018-12-19T09:20:43.739Z,4.78
2018-12-19T09:23:12.945Z,4.49
2018-12-19T09:25:42.164Z,4.48
2018-12-19T09:28:11.450Z,4.45
2018-12-19T09:30:41.005Z,4.50
2018-12-19T09:33:10.395Z,4.63
2018-12-19T09:35:39.733Z,4.54
2018-12-19T09:38:08.873Z,4.54
2018-12-19T09:40:38.208Z,4.66
2018-12-19T09:43:08.032Z,4.80
2018-12-19T09:45:38.226Z,4.87
2018-12-19T09:48:07.647Z,5.06
2018-12-19T09:50:37.120Z,5.50
2018-12-19T09:53:06.152Z,5.39
2018-12-19T09:55:35.456Z,5.75
2018-12-19T09:58:04.682Z,5.72
2018-12-19T10:00:33.963Z,5.61
2018-12-19T10:03:03.197Z,5.56
2018-12-19T10:05:32.636Z,5.02
2018-12-19T10:08:01.911Z,4.98
2018-12-19T10:10:31.126Z,4.96
2018-12-19T10:13:00.403Z,4.83
2018-12-19T10:15:29.796Z,4.94
2018-12-19T10:17:59.115Z,5.23
2018-12-19T10:20:28.601Z,5.55
2018-12-19T10:22:57.892Z,5.49
2018-12-19T10:25:27.528Z,5.81
2018-12-19T10:27:56.677Z,5.49
2018-12-19T10:30:26.072Z,5.50
2018-12-19T10:32:56.904Z,5.73
2018-12-19T10:35:26.884Z,5.94
2018-12-19T10:37:56.307Z,6.17
2018-12-19T10:40:25.508Z,6.31
2018-12-19T10:42:54.970Z,6.74
2018-12-19T10:45:24.256Z,6.34
2018-12-19T10:47:53.419Z,5.85
2018-12-19T10:50:22.616Z,5.59
2018-12-19T10:52:51.975Z,5.60
2018-12-19T10:55:21.273Z,5.83
2018-12-19T10:57:50.703Z,5.79
2018-12-19T11:00:24.836Z,5.53
2018-12-19T11:02:54.126Z,5.62
2018-12-19T11:05:23.570Z,5.70
2018-12-19T11:07:53.083Z,5.58
2018-12-19T11:10:22.500Z,5.59
2018-12-19T11:12:51.980Z,5.68
2018-12-19T11:15:21.180Z,5.78
2018-12-19T11:17:50.646Z,5.99
2018-12-19T11:20:20.107Z,5.77
2018-12-19T11:22:50.219Z,5.71
2018-12-19T11:25:19.532Z,5.58
2018-12-19T11:27:49.028Z,5.68
2018-12-19T11:30:18.436Z,5.84
2018-12-19T11:32:47.795Z,5.67
2018-12-19T11:35:17.082Z,5.57
2018-12-19T11:37:46.357Z,5.68
2018-12-19T11:40:15.919Z,5.74
2018-12-19T11:42:45.420Z,5.63
2018-12-19T11:45:14.814Z,5.67
2018-12-19T11:47:44.190Z,5.67
2018-12-19T11:50:13.327Z,6.02
2018-12-19T11:52:42.832Z,6.44
2018-12-19T11:55:12.114Z,6.44
2018-12-19T11:57:41.340Z,6.54
2018-12-19T12:00:11.110Z,6.15
2018-12-19T12:02:40.456Z,6.28
2018-12-19T12:05:09.708Z,6.28
2018-12-19T12:07:39.332Z,6.11
2018-12-19T12:10:09.632Z,6.69
2018-12-19T12:12:39.113Z,6.30
2018-12-19T12:15:08.660Z,6.15
2018-12-19T12:17:38.292Z,6.21
2018-12-19T12:20:09.156Z,6.27
2018-12-19T12:22:38.647Z,6.68
2018-12-19T12:25:08.257Z,6.15
2018-12-19T12:27:37.686Z,6.05
2018-12-19T12:30:07.354Z,6.06
2018-12-19T12:32:36.922Z,6.19
2018-12-19T12:35:07.418Z,5.83
2018-12-19T12:37:36.998Z,5.79
2018-12-19T12:40:07.231Z,5.94
2018-12-19T12:42:36.941Z,5.81
2018-12-19T12:45:06.860Z,5.86
2018-12-19T12:47:36.711Z,6.23
2018-12-19T12:50:06.744Z,6.08
2018-12-19T12:52:36.317Z,6.29
2018-12-19T12:55:05.922Z,6.16
2018-12-19T12:57:35.432Z,6.12
2018-12-19T13:00:06.883Z,6.35
2018-12-19T13:02:36.531Z,6.10
2018-12-19T13:05:05.925Z,6.14
2018-12-19T13:07:35.481Z,6.21
2018-12-19T13:10:05.542Z,6.54
2018-12-19T13:12:34.898Z,6.97
2018-12-19T13:15:04.401Z,6.76
2018-12-19T13:17:33.900Z,6.85
2018-12-19T13:20:03.407Z,6.46
2018-12-19T13:22:32.884Z,6.21
2018-12-19T13:25:02.350Z,6.33
2018-12-19T13:27:31.791Z,6.51
2018-12-19T13:30:01.232Z,6.79
2018-12-19T13:32:30.667Z,6.38
2018-12-19T13:35:00.469Z,6.38
2018-12-19T13:37:30.149Z,6.28
2018-12-19T13:39:59.639Z,6.30
2018-12-19T13:42:29.032Z,6.25
2018-12-19T13:44:58.382Z,6.00
2018-12-19T13:47:27.949Z,6.32
2018-12-19T13:49:57.891Z,6.79
2018-12-19T13:52:27.331Z,7.39
2018-12-19T13:54:56.891Z,7.31
2018-12-19T13:57:26.199Z,7.49
2018-12-19T13:59:55.690Z,7.30
2018-12-19T14:02:25.410Z,7.48
2018-12-19T14:04:54.987Z,7.08
2018-12-19T14:07:24.506Z,6.89
2018-12-19T14:09:54.225Z,7.34
2018-12-19T14:12:23.830Z,7.88
2018-12-19T14:14:53.372Z,7.85
2018-12-19T14:17:22.888Z,8.12
2018-12-19T14:19:52.465Z,8.28
2018-12-19T14:22:22.196Z,8.54
2018-12-19T14:24:51.484Z,8.66
2018-12-19T14:27:21.014Z,8.49
2018-12-19T14:29:50.754Z,7.72
2018-12-19T14:32:20.375Z,7.29
2018-12-19T14:34:49.722Z,6.93
2018-12-19T14:37:19.208Z,6.67
2018-12-19T14:39:48.811Z,6.67
2018-12-19T14:42:19.197Z,6.98
2018-12-19T14:44:49.597Z,7.35
2018-12-19T14:47:19.728Z,7.46
2018-12-19T14:49:49.517Z,7.48
2018-12-19T14:52:19.075Z,7.89
2018-12-19T14:54:48.592Z,8.27
2018-12-19T14:57:18.148Z,7.71
2018-12-19T14:59:47.650Z,6.91
2018-12-19T15:02:16.926Z,6.95
2018-12-19T15:04:46.413Z,6.85
2018-12-19T15:07:16.028Z,7.17
2018-12-19T15:09:45.717Z,7.45
2018-12-19T15:12:15.047Z,7.53
2018-12-19T15:14:44.447Z,6.93
2018-12-19T15:17:14.059Z,7.04
2018-12-19T15:19:43.767Z,7.14
2018-12-19T15:22:13.396Z,7.01
2018-12-19T15:24:42.839Z,6.90
2018-12-19T15:27:12.477Z,6.65
2018-12-19T15:29:41.997Z,6.47
2018-12-19T15:32:11.596Z,6.43
2018-12-19T15:34:41.203Z,6.64
2018-12-19T15:37:10.678Z,6.48
2018-12-19T15:39:40.129Z,6.32
2018-12-19T15:42:09.652Z,6.34
2018-12-19T15:44:39.223Z,6.35
2018-12-19T15:47:08.738Z,6.43
2018-12-19T15:49:38.300Z,6.84
2018-12-19T15:52:07.989Z,7.34
2018-12-19T15:54:37.425Z,7.73
2018-12-19T15:57:07.284Z,7.83
2018-12-19T15:59:37.279Z,7.73
2018-12-19T16:02:06.968Z,7.11
2018-12-19T16:04:36.556Z,6.92
2018-12-19T16:07:06.004Z,6.62
2018-12-19T16:09:35.915Z,6.73
2018-12-19T16:12:05.404Z,6.86
2018-12-19T16:14:34.991Z,7.12
2018-12-19T16:17:04.526Z,7.70
2018-12-19T16:19:34.272Z,8.10
2018-12-19T16:22:04.086Z,8.41
2018-12-19T16:24:34.129Z,8.69
2018-12-19T16:27:04.228Z,8.75
2018-12-19T16:29:33.767Z,8.88
2018-12-19T16:32:03.614Z,8.98
2018-12-19T16:34:33.531Z,9.05
2018-12-19T16:37:03.052Z,9.11
2018-12-19T16:39:32.454Z,9.04
2018-12-19T16:42:02.043Z,9.08
2018-12-19T16:44:31.648Z,9.05
2018-12-19T16:47:01.294Z,9.02
2018-12-19T16:49:30.583Z,9.09
2018-12-19T16:51:59.876Z,8.95
2018-12-19T16:54:29.304Z,8.77
2018-12-19T16:56:58.557Z,8.91
2018-12-19T16:59:27.713Z,8.93
2018-12-19T17:01:57.086Z,8.88
2018-12-19T17:04:26.196Z,8.89
2018-12-19T17:06:55.375Z,8.94
2018-12-19T17:09:24.460Z,8.85
2018-12-19T17:11:53.615Z,8.57
2018-12-19T17:14:23.043Z,8.40
2018-12-19T17:16:52.355Z,8.55
2018-12-19T17:19:21.549Z,8.68
2018-12-19T17:21:50.827Z,8.79
2018-12-19T17:24:23.291Z,8.91
2018-12-19T17:26:52.563Z,9.02
2018-12-19T17:29:21.873Z,9.18
2018-12-19T17:31:51.135Z,9.22
2018-12-19T17:34:20.604Z,9.21
2018-12-19T17:36:49.848Z,9.17
2018-12-19T17:39:19.292Z,9.08
2018-12-19T17:41:48.712Z,9.02
2018-12-19T17:44:18.220Z,9.05
2018-12-19T17:46:47.671Z,9.09
2018-12-19T17:49:17.759Z,9.07
2018-12-19T17:51:47.093Z,9.02
2018-12-19T17:54:17.537Z,9.05
2018-12-19T17:56:47.025Z,9.08
2018-12-19T17:59:16.340Z,9.09
2018-12-19T18:01:46.019Z,9.07
2018-12-19T18:04:15.352Z,9.11
2018-12-19T18:06:44.616Z,9.09
2018-12-19T18:09:14.350Z,8.89
2018-12-19T18:11:43.665Z,8.43
2018-12-19T18:14:13.946Z,8.28
2018-12-19T18:16:43.387Z,8.37
2018-12-19T18:19:12.776Z,8.46
2018-12-19T18:21:42.104Z,8.65
2018-12-19T18:24:11.620Z,8.75
2018-12-19T18:26:41.004Z,8.67
2018-12-19T18:29:10.612Z,8.63
2018-12-19T18:31:39.758Z,8.68
2018-12-19T18:34:08.880Z,8.74
2018-12-19T18:36:38.163Z,8.82
2018-12-19T18:39:09.490Z,8.99
2018-12-19T18:41:38.931Z,9.07
2018-12-19T18:44:08.400Z,9.12
2018-12-19T18:46:37.765Z,9.21
2018-12-19T18:49:07.270Z,9.08
2018-12-19T18:51:36.779Z,8.91
2018-12-19T18:54:06.156Z,9.11
2018-12-19T18:56:35.557Z,9.20
2018-12-19T18:59:04.880Z,9.13
2018-12-19T19:01:34.157Z,9.22
2018-12-19T19:04:03.646Z,9.20
2018-12-19T19:06:32.755Z,9.26
2018-12-19T19:09:02.585Z,9.27
2018-12-19T19:11:31.947Z,9.31
2018-12-19T19:14:01.263Z,9.38
2018-12-19T19:16:30.613Z,9.36
2018-12-19T19:18:59.945Z,9.34
2018-12-19T19:21:29.456Z,9.28
2018-12-19T19:23:58.786Z,9.30
2018-12-19T19:26:27.983Z,9.34
2018-12-19T19:28:57.276Z,9.32
2018-12-19T19:31:26.728Z,9.32
2018-12-19T19:33:56.129Z,9.32
2018-12-19T19:36:25.480Z,9.21
2018-12-19T19:38:54.798Z,9.20
2018-12-19T19:41:24.223Z,9.28
2018-12-19T19:43:53.538Z,9.33
2018-12-19T19:46:22.908Z,9.17
2018-12-19T19:48:52.423Z,9.19
2018-12-19T19:51:21.868Z,9.20
2018-12-19T19:53:51.176Z,9.24
2018-12-19T19:56:20.616Z,9.28
2018-12-19T19:58:49.876Z,9.30
2018-12-19T20:01:19.455Z,9.29
2018-12-19T20:03:48.835Z,9.19
2018-12-19T20:06:18.410Z,9.25
2018-12-19T20:08:47.989Z,9.25
2018-12-19T20:11:17.659Z,9.16
2018-12-19T20:13:47.120Z,9.22
2018-12-19T20:16:16.307Z,9.23
2018-12-19T20:18:45.763Z,9.26
2018-12-19T20:21:15.203Z,9.38
2018-12-19T20:23:44.511Z,9.48
2018-12-19T20:26:13.927Z,9.59
2018-12-19T20:28:43.482Z,9.64
2018-12-19T20:31:12.772Z,9.75
2018-12-19T20:33:42.360Z,9.77
2018-12-19T20:36:11.512Z,9.80
2018-12-19T20:38:40.845Z,9.78
2018-12-19T20:41:10.229Z,9.73
2018-12-19T20:43:40.132Z,9.69
2018-12-19T20:46:09.623Z,9.63
2018-12-19T20:48:38.937Z,9.59
2018-12-19T20:51:08.348Z,9.61
2018-12-19T20:53:37.939Z,9.64
2018-12-19T20:56:07.375Z,9.68
2018-12-19T20:58:36.838Z,9.68
2018-12-19T21:01:05.960Z,9.62
2018-12-19T21:03:35.296Z,9.60
2018-12-19T21:06:04.579Z,9.61
2018-12-19T21:08:33.993Z,9.62
2018-12-19T21:11:03.315Z,9.66
2018-12-19T21:13:32.574Z,9.68
2018-12-19T21:16:01.892Z,9.68
2018-12-19T21:18:36.278Z,9.64
2018-12-19T21:21:05.613Z,9.57
2018-12-19T21:23:34.985Z,9.54
2018-12-19T21:26:04.417Z,9.37
2018-12-19T21:28:33.667Z,9.21
2018-12-19T21:31:03.147Z,9.21
2018-12-19T21:33:32.517Z,9.20
2018-12-19T21:36:01.754Z,9.07
2018-12-19T21:38:30.940Z,8.99
2018-12-19T21:41:00.205Z,8.98
2018-12-19T21:43:29.878Z,9.12
2018-12-19T21:45:59.061Z,9.17
2018-12-19T21:48:28.698Z,9.21
2018-12-19T21:50:57.928Z,9.30
2018-12-19T21:53:27.166Z,9.22
2018-12-19T21:55:56.550Z,9.11
2018-12-19T21:58:26.164Z,8.77
2018-12-19T22:00:55.541Z,8.10
2018-12-19T22:03:25.002Z,7.22
2018-12-19T22:05:54.278Z,7.72
2018-12-19T22:08:23.499Z,8.28
2018-12-19T22:10:53.086Z,8.69
2018-12-19T22:13:22.510Z,8.92
2018-12-19T22:15:51.767Z,9.12
2018-12-19T22:18:26.532Z,9.28
2018-12-19T22:20:55.915Z,9.15
2018-12-19T22:23:25.553Z,7.84
2018-12-19T22:25:54.820Z,6.82
2018-12-19T22:28:24.027Z,7.02
2018-12-19T22:30:53.304Z,7.65
2018-12-19T22:33:22.975Z,8.17
2018-12-19T22:35:52.659Z,8.05
2018-12-19T22:38:22.268Z,8.26
2018-12-19T22:40:52.079Z,8.62
2018-12-19T22:43:21.920Z,7.69
2018-12-19T22:45:51.325Z,7.17
2018-12-19T22:48:20.963Z,7.55
2018-12-19T22:50:50.629Z,8.04
2018-12-19T22:53:20.102Z,8.09
2018-12-19T22:55:50.709Z,8.45
2018-12-19T22:58:20.289Z,8.66
2018-12-19T23:00:56.097Z,7.88
2018-12-19T23:03:30.659Z,7.22
2018-12-19T23:06:00.474Z,7.07
2018-12-19T23:08:30.049Z,7.35
2018-12-19T23:10:59.974Z,7.82
2018-12-19T23:13:29.420Z,7.80
2018-12-19T23:15:58.963Z,8.23
2018-12-19T23:18:28.654Z,8.42
2018-12-19T23:20:58.364Z,8.67
2018-12-19T23:23:27.791Z,8.81
2018-12-19T23:25:56.988Z,8.82
2018-12-19T23:28:26.180Z,8.45
2018-12-19T23:30:55.664Z,8.42
2018-12-19T23:33:25.207Z,8.57
2018-12-19T23:35:54.443Z,8.59
2018-12-19T23:38:23.663Z,8.68
2018-12-19T23:40:52.915Z,8.54
2018-12-19T23:43:22.349Z,8.63
2018-12-19T23:45:51.646Z,8.50
2018-12-19T23:48:21.028Z,7.79
2018-12-19T23:50:50.295Z,7.53
2018-12-19T23:53:19.544Z,7.33
2018-12-19T23:55:48.789Z,6.98
2018-12-19T23:58:18.017Z,6.77
